Time;durP1;ratioP1;P1;durP2;ratioP2;P2;SDS_P1;SDS_P2;PMS_P1;PMS_P2;Temp;Humidity;BMP_temperature;BMP_pressure;BME280_temperature;BME280_humidity;BME280_pressure;Samples;Min_cycle;Max_cycle;Signal;HPM_P1;HPM_P2
2022/02/12 00:00:00;;;;;;;76.43;43.27;;;;;;;5.24;64.57;100938.17;126201;1099;104297;-81
2022/02/12 00:02:31;;;;;;;69.87;41.53;;;;;;;5.25;64.35;100941.66;126269;1099;104197;-81
2022/02/12 00:05:03;;;;;;;74.77;42.77;;;;;;;5.26;64.79;100936.56;126159;1099;104694;-82
2022/02/12 00:07:34;;;;;;;73.53;42.93;;;;;;;5.24;64.98;100927.77;126334;1099;104178;-82
2022/02/12 00:10:07;;;;;;;75.37;40.83;;;;;;;5.24;65.48;100925.16;126335;1099;104332;-81
2022/02/12 00:12:38;;;;;;;70.80;42.87;;;;;;;5.26;64.82;100928.75;126324;1099;104267;-82
2022/02/12 00:15:11;;;;;;;73.80;41.97;;;;;;;5.28;64.96;100919.33;126318;1099;104155;-82
2022/02/12 00:17:43;;;;;;;71.10;41.30;;;;;;;5.29;64.85;100926.34;126288;1099;104207;-82
2022/02/12 00:20:16;;;;;;;73.50;40.65;;;;;;;5.32;64.62;100920.45;126402;1099;104614;-82
2022/02/12 00:22:47;;;;;;;72.50;41.67;;;;;;;5.33;64.98;100923.15;126336;1099;104255;-81
2022/02/12 00:25:18;;;;;;;72.10;41.93;;;;;;;5.37;65.15;100929.44;126300;1099;105483;-82
2022/02/12 00:27:50;;;;;;;67.63;38.47;;;;;;;5.37;65.22;100930.33;126393;1097;104194;-82
2022/02/12 00:30:21;;;;;;;65.97;38.60;;;;;;;5.33;65.28;100932.64;126354;1097;105223;-81
2022/02/12 00:32:53;;;;;;;69.63;40.03;;;;;;;5.24;65.02;100927.77;126370;1099;104146;-82
2022/02/12 00:35:24;;;;;;;66.93;39.47;;;;;;;5.15;65.06;100924.57;126307;1097;104268;-81
2022/02/12 00:37:56;;;;;;;68.40;39.37;;;;;;;5.06;65.27;100930.07;126342;1099;104173;-81
2022/02/12 00:40:28;;;;;;;71.17;40.03;;;;;;;4.99;65.04;100933.98;126371;1099;104146;-81
2022/02/12 00:42:59;;;;;;;68.50;39.83;;;;;;;4.97;64.97;100933.00;126331;1099;104150;-81
2022/02/12 00:45:30;;;;;;;71.90;40.90;;;;;;;4.93;65.38;100936.19;126278;1099;104175;-81
2022/02/12 00:48:02;;;;;;;74.47;39.70;;;;;;;4.88;64.88;100941.87;126364;1099;104152;-80
2022/02/12 00:50:33;;;;;;;75.80;42.93;;;;;;;4.77;65.07;100946.37;126364;1099;104149;-81
2022/02/12 00:53:05;;;;;;;68.43;42.23;;;;;;;4.63;65.35;100946.38;126343;1099;104229;-81
2022/02/12 00:55:36;;;;;;;70.57;40.93;;;;;;;4.51;65.33;100953.34;126317;1097;104143;-81
2022/02/12 00:58:08;;;;;;;69.97;40.43;;;;;;;4.39;65.58;100971.59;126388;1099;104179;-81
2022/02/12 01:00:39;;;;;;;72.80;40.03;;;;;;;4.25;66.15;100981.05;126371;1098;104327;-81
2022/02/12 01:03:11;;;;;;;69.97;39.43;;;;;;;4.12;66.43;100975.82;126312;1099;104268;-82
2022/02/12 01:05:43;;;;;;;67.97;39.20;;;;;;;3.98;65.98;100982.65;126307;1099;104134;-82
2022/02/12 01:08:14;;;;;;;66.40;38.90;;;;;;;3.95;66.05;100980.73;126384;1099;104291;-80
2022/02/12 01:10:46;;;;;;;66.93;37.20;;;;;;;3.96;66.03;100979.95;126324;1099;104169;-80
2022/02/12 01:13:17;;;;;;;63.05;36.80;;;;;;;3.99;66.02;100986.14;126379;1099;104134;-82
2022/02/12 01:15:50;;;;;;;64.40;37.37;;;;;;;4.01;66.26;100987.17;126281;1098;104258;-82
2022/02/12 01:18:21;;;;;;;64.73;37.73;;;;;;;4.06;66.46;100990.98;126356;1097;104175;-81
2022/02/12 01:20:53;;;;;;;60.20;35.50;;;;;;;4.10;66.59;100998.20;126367;1099;104153;-81
2022/02/12 01:23:25;;;;;;;67.67;37.93;;;;;;;4.10;65.62;100993.89;126364;1099;104194;-81
2022/02/12 01:25:56;;;;;;;65.60;38.70;;;;;;;4.13;66.41;100993.22;126326;1098;104300;-82
2022/02/12 01:28:28;;;;;;;60.80;35.67;;;;;;;4.08;66.28;101000.69;126358;1099;104146;-81
2022/02/12 01:30:59;;;;;;;65.93;37.57;;;;;;;4.10;66.13;100998.20;126347;1097;104208;-81
2022/02/12 01:33:31;;;;;;;60.43;35.03;;;;;;;4.12;66.79;101001.80;126353;1099;104203;-82
2022/02/12 01:36:02;;;;;;;60.73;33.97;;;;;;;4.12;67.36;101017.38;126326;1099;104274;-82
2022/02/12 01:38:34;;;;;;;55.37;33.23;;;;;;;4.05;66.54;101016.05;126385;1099;104329;-81
2022/02/12 01:41:05;;;;;;;57.73;33.33;;;;;;;4.01;67.13;101026.13;126275;1099;104146;-80
2022/02/12 01:43:38;;;;;;;57.73;32.43;;;;;;;3.97;67.33;101019.78;126399;1097;104187;-82
2022/02/12 01:46:09;;;;;;;55.90;32.20;;;;;;;3.91;66.65;101017.68;126271;1099;104200;-82
2022/02/12 01:48:43;;;;;;;52.97;31.57;;;;;;;3.91;66.96;101029.73;126389;1099;104169;-82
2022/02/12 01:51:15;;;;;;;57.83;32.58;;;;;;;3.90;66.50;101031.45;126301;1099;104216;-82
2022/02/12 01:53:46;;;;;;;53.57;31.73;;;;;;;3.90;67.63;101041.83;126285;1099;104213;-82
2022/02/12 01:56:18;;;;;;;54.67;32.00;;;;;;;3.90;67.28;101041.83;126339;1096;104198;-81
2022/02/12 01:58:49;;;;;;;56.60;32.65;;;;;;;3.91;67.08;101048.84;126344;1099;104197;-81
2022/02/12 02:01:22;;;;;;;56.70;31.23;;;;;;;3.93;66.81;101055.03;126363;1099;104168;-82
2022/02/12 02:03:54;;;;;;;56.30;31.83;;;;;;;3.95;68.24;101061.22;126377;1099;104220;-82
2022/02/12 02:06:25;;;;;;;50.80;30.00;;;;;;;3.99;67.85;101066.64;126279;1098;104268;-81
2022/02/12 02:08:57;;;;;;;52.70;28.40;;;;;;;4.00;68.12;101069.34;126342;1099;104152;-81
2022/02/12 02:11:29;;;;;;;57.53;31.73;;;;;;;4.02;67.60;101064.26;126365;1099;104172;-81
2022/02/12 02:14:00;;;;;;;48.17;28.47;;;;;;;4.05;68.17;101073.19;126372;1099;104253;-82
2022/02/12 02:16:32;;;;;;;52.47;29.63;;;;;;;4.09;68.21;101076.90;126348;1099;104160;-81
2022/02/12 02:19:03;;;;;;;47.33;28.30;;;;;;;4.16;67.92;101078.22;126362;1099;104899;-81
2022/02/12 02:21:37;;;;;;;46.50;26.27;;;;;;;4.24;68.45;101079.66;126381;1099;104159;-81
2022/02/12 02:24:08;;;;;;;;;;;;;;;4.34;68.88;101081.23;126367;1098;104273;-81
2022/02/12 02:26:39;;;;;;;44.60;25.97;;;;;;;4.40;68.55;101081.66;126331;1099;104153;-81
2022/02/12 02:29:11;;;;;;;42.67;23.20;;;;;;;4.48;68.45;101081.37;126337;1099;104190;-81
2022/02/12 02:31:42;;;;;;;38.73;21.83;;;;;;;4.58;69.41;101093.33;126363;1099;104597;-81
2022/02/12 02:34:15;;;;;;;41.77;21.57;;;;;;;4.70;69.21;101093.25;126346;1099;104204;-81
2022/02/12 02:36:50;;;;;;;38.07;20.53;;;;;;;4.79;69.14;101103.40;126305;1099;104579;-80
2022/02/12 02:39:22;;;;;;;35.70;18.50;;;;;;;4.89;69.51;101100.61;126378;1099;104264;-80
2022/02/12 02:41:53;;;;;;;32.60;16.93;;;;;;;4.98;69.71;101106.44;126374;1099;104153;-81
2022/02/12 02:44:29;;;;;;;34.53;16.80;;;;;;;5.08;68.94;101109.66;126354;1099;104246;-82
2022/02/12 02:47:32;;;;;;;28.90;14.33;;;;;;;5.16;69.18;101111.99;126318;1099;104156;-81
2022/02/12 02:49:52;;;;;;;29.23;14.13;;;;;;;5.25;69.32;101116.92;126372;1099;104252;-81
2022/02/12 02:58:04;;;;;;;24.77;11.50;;;;;;;5.44;69.22;101131.13;125873;1099;104195;-81
2022/02/12 03:00:35;;;;;;;21.47;10.80;;;;;;;5.48;69.25;101149.66;126363;1099;104184;-80
2022/02/12 03:03:07;;;;;;;20.80;10.60;;;;;;;5.52;69.04;101142.98;126315;1099;104150;-81
2022/02/12 03:05:38;;;;;;;21.85;10.35;;;;;;;5.56;68.94;101137.15;126377;1099;104605;-80
2022/02/12 03:08:10;;;;;;;21.33;10.07;;;;;;;5.55;69.38;101146.67;126331;1099;104146;-82
2022/02/12 03:10:41;;;;;;;21.63;9.63;;;;;;;5.57;68.59;101150.27;126318;1099;104424;-80
2022/02/12 03:13:13;;;;;;;19.00;8.67;;;;;;;5.56;69.00;101163.19;126363;1098;104143;-80
2022/02/12 03:15:44;;;;;;;20.20;8.90;;;;;;;5.54;68.34;101160.48;126359;1099;104142;-82
2022/02/12 03:18:15;;;;;;;17.30;8.33;;;;;;;5.52;68.85;101169.02;126312;1099;104277;-80
2022/02/12 03:20:47;;;;;;;22.53;8.97;;;;;;;5.49;68.51;101163.59;126384;1099;104229;-81
2022/02/12 03:23:18;;;;;;;17.27;7.97;;;;;;;5.48;68.55;101165.28;126304;1099;104300;-81
2022/02/12 03:25:50;;;;;;;17.13;8.27;;;;;;;5.50;68.38;101178.39;126374;1099;104156;-81
2022/02/12 03:28:21;;;;;;;18.83;8.33;;;;;;;5.47;68.20;101176.51;126301;1099;104163;-80
2022/02/12 03:30:53;;;;;;;18.13;7.60;;;;;;;5.49;67.62;101181.82;126392;1099;104153;-81
2022/02/12 03:33:24;;;;;;;17.03;7.87;;;;;;;5.48;68.06;101182.61;126350;1099;104727;-82
2022/02/12 03:35:56;;;;;;;17.20;7.83;;;;;;;5.47;68.38;101197.34;126346;1099;104290;-80
2022/02/12 03:38:29;;;;;;;15.23;6.87;;;;;;;5.45;67.92;101179.80;126296;1099;104217;-81
2022/02/12 03:41:02;;;;;;;14.60;7.20;;;;;;;5.43;67.81;101195.31;126311;1099;104208;-81
2022/02/12 03:43:35;;;;;;;14.77;6.83;;;;;;;5.43;67.71;101199.63;126399;1099;104198;-81
2022/02/12 03:46:08;;;;;;;13.83;6.60;;;;;;;5.42;67.36;101197.81;126320;1099;104175;-80
2022/02/12 03:48:39;;;;;;;12.63;6.50;;;;;;;5.40;67.74;101214.22;126283;1099;104319;-80
2022/02/12 03:51:10;;;;;;;12.30;6.33;;;;;;;5.39;67.45;101198.49;126383;1099;104219;-81
2022/02/12 03:53:59;;;;;;;13.00;6.27;;;;;;;5.38;67.56;101215.82;126344;1099;104245;-79
2022/02/12 03:56:30;;;;;;;13.37;6.40;;;;;;;5.35;67.07;101205.20;126302;1097;104171;-79
2022/02/12 03:59:03;;;;;;;13.87;6.00;;;;;;;5.34;66.99;101220.72;126328;1099;104159;-81
2022/02/12 04:01:35;;;;;;;12.50;5.87;;;;;;;5.31;67.10;101210.98;126312;1099;104274;-81
2022/02/12 04:04:07;;;;;;;11.40;5.77;;;;;;;5.29;66.97;101227.31;126351;1098;104150;-80
2022/02/12 04:06:38;;;;;;;12.50;6.37;;;;;;;5.26;67.08;101230.59;126313;1099;104140;-81
2022/02/12 04:09:10;;;;;;;13.53;6.87;;;;;;;5.23;67.40;101230.39;126354;1099;104245;-81
2022/02/12 04:11:42;;;;;;;11.73;5.93;;;;;;;5.21;66.86;101234.59;126361;1099;104271;-81
2022/02/12 04:14:13;;;;;;;13.13;6.67;;;;;;;5.17;67.03;101251.70;126367;1099;104143;-81
2022/02/12 04:16:45;;;;;;;11.50;5.53;;;;;;;5.15;67.35;101257.58;126411;1099;104251;-80
2022/02/12 04:19:16;;;;;;;11.40;5.87;;;;;;;5.09;67.31;101237.23;126327;1099;104169;-81
2022/02/12 04:21:48;;;;;;;10.63;5.60;;;;;;;5.03;66.84;101257.62;126384;1099;104146;-81
2022/02/12 04:24:19;;;;;;;10.63;5.00;;;;;;;4.95;67.55;101262.28;126347;1098;104355;-81
2022/02/12 04:26:51;;;;;;;11.47;5.37;;;;;;;4.91;67.40;101255.08;126360;1099;104197;-80
2022/02/12 04:29:22;;;;;;;11.90;5.67;;;;;;;4.83;67.62;101270.14;126262;1099;104141;-80
2022/02/12 04:31:55;;;;;;;12.63;6.07;;;;;;;4.78;68.16;101289.69;126310;1099;104248;-81
2022/02/12 04:34:26;;;;;;;10.53;5.10;;;;;;;4.68;68.22;101293.34;126334;1099;104175;-81
2022/02/12 04:36:58;;;;;;;11.73;5.77;;;;;;;4.61;69.00;101298.91;126344;1099;104152;-80
2022/02/12 04:39:29;;;;;;;12.23;5.67;;;;;;;4.56;69.20;101297.64;126300;1097;104134;-80
2022/02/12 04:42:01;;;;;;;11.30;5.50;;;;;;;4.49;68.73;101311.01;126333;1099;104191;-81
2022/02/12 04:44:32;;;;;;;11.03;5.70;;;;;;;4.42;69.28;101316.53;126388;1097;104233;-80
2022/02/12 04:47:06;;;;;;;12.30;5.73;;;;;;;4.34;69.92;101313.38;126402;1099;104156;-79
2022/02/12 04:49:40;;;;;;;12.00;5.83;;;;;;;4.26;69.60;101320.60;126309;1098;104223;-81
2022/02/12 04:52:14;;;;;;;13.23;6.80;;;;;;;4.22;69.59;101346.23;126365;1097;104746;-81
2022/02/12 04:54:46;;;;;;;13.93;6.53;;;;;;;4.15;69.33;101339.69;126392;1097;104226;-81
2022/02/12 04:57:18;;;;;;;14.10;6.90;;;;;;;4.12;69.73;101344.66;126384;1099;104194;-81
2022/02/12 04:59:50;;;;;;;12.53;6.37;;;;;;;4.08;70.71;101352.99;126341;1099;104685;-80
2022/02/12 05:02:22;;;;;;;11.07;5.80;;;;;;;4.03;71.37;101355.24;126344;1099;104320;-80
2022/02/12 05:04:55;;;;;;;11.43;5.77;;;;;;;3.96;71.13;101358.19;126291;1099;104647;-81
2022/02/12 05:07:27;;;;;;;12.00;5.87;;;;;;;3.87;71.84;101358.38;126304;1099;104260;-80
2022/02/12 05:09:59;;;;;;;13.83;6.43;;;;;;;3.82;70.45;101359.73;126325;1099;104169;-81
2022/02/12 05:12:31;;;;;;;14.67;6.73;;;;;;;3.77;71.54;101364.56;126306;1099;104239;-82
2022/02/12 05:15:03;;;;;;;15.40;6.30;;;;;;;3.76;70.43;101369.64;126367;1099;104217;-81
2022/02/12 05:17:35;;;;;;;12.80;6.70;;;;;;;3.72;71.36;101362.39;126323;1099;104166;-81
2022/02/12 05:20:09;;;;;;;12.87;5.93;;;;;;;3.65;72.23;101361.02;126276;1099;104251;-80
2022/02/12 05:22:40;;;;;;;12.13;6.05;;;;;;;3.58;72.80;101380.42;126308;1099;104172;-80
2022/02/12 05:25:12;;;;;;;10.50;5.63;;;;;;;3.52;72.99;101390.32;126300;1099;104287;-81
2022/02/12 05:27:44;;;;;;;15.57;6.83;;;;;;;3.47;72.95;101388.14;126212;1099;104172;-81
2022/02/12 05:30:15;;;;;;;13.27;6.13;;;;;;;3.43;73.25;101384.41;126072;1099;104178;-78
2022/02/12 05:32:47;;;;;;;12.30;5.77;;;;;;;3.39;73.05;101387.53;126154;1099;104143;-79
2022/02/12 05:35:18;;;;;;;12.37;6.13;;;;;;;3.38;72.34;101397.02;126139;1099;104172;-79
2022/02/12 05:37:50;;;;;;;12.23;6.23;;;;;;;3.38;73.09;101386.64;126179;1099;104139;-78
2022/02/12 05:40:21;;;;;;;14.00;6.60;;;;;;;3.38;73.18;101391.83;125984;1099;104242;-80
2022/02/12 05:42:53;;;;;;;14.87;6.20;;;;;;;3.37;72.69;101408.17;126086;1097;104312;-79
2022/02/12 05:45:24;;;;;;;13.47;6.57;;;;;;;3.36;73.74;101413.23;126209;1099;101723;-79
2022/02/12 05:47:55;;;;;;;12.43;5.90;;;;;;;3.34;74.22;101430.38;126217;1099;104236;-80
2022/02/12 05:50:29;;;;;;;12.77;6.63;;;;;;;3.31;73.02;101425.84;126226;1098;104184;-79
2022/02/12 05:53:00;;;;;;;16.73;6.43;;;;;;;3.28;73.40;101435.08;126241;1099;104149;-79
2022/02/12 05:55:32;;;;;;;12.97;6.23;;;;;;;3.30;73.79;101438.69;126287;1099;104143;-79
2022/02/12 05:58:03;;;;;;;12.07;5.83;;;;;;;3.29;73.76;101442.98;126389;1097;104149;-80
2022/02/12 06:00:35;;;;;;;10.63;6.20;;;;;;;3.29;74.33;101450.77;126294;1099;104631;-81
2022/02/12 06:03:06;;;;;;;12.53;6.30;;;;;;;3.30;74.20;101444.77;126319;1099;104220;-81
2022/02/12 06:05:38;;;;;;;10.83;5.70;;;;;;;3.33;73.13;101454.50;126282;1099;104517;-80
2022/02/12 06:08:13;;;;;;;11.77;6.10;;;;;;;3.34;73.51;101470.19;126318;1097;104329;-81
2022/02/12 06:10:50;;;;;;;10.90;5.87;;;;;;;3.32;74.16;101476.03;126306;1098;104252;-81
2022/02/12 06:13:22;;;;;;;12.60;6.17;;;;;;;3.30;73.68;101467.23;126354;1099;104242;-80
2022/02/12 06:15:53;;;;;;;15.07;6.87;;;;;;;3.29;74.06;101476.70;126392;1099;104141;-80
2022/02/12 06:18:26;;;;;;;11.93;6.33;;;;;;;3.29;73.56;101480.97;126364;1098;104142;-81
2022/02/12 06:20:58;;;;;;;13.67;6.50;;;;;;;3.31;74.02;101485.51;126274;1099;104195;-80
2022/02/12 06:23:30;;;;;;;11.40;5.70;;;;;;;3.32;74.17;101501.97;126374;1099;104220;-81
2022/02/12 06:26:02;;;;;;;12.13;6.37;;;;;;;3.33;73.36;101496.91;126340;1099;104146;-81
2022/02/12 06:28:35;;;;;;;9.63;5.40;;;;;;;3.35;73.61;101503.15;126425;1099;104169;-81
2022/02/12 06:31:06;;;;;;;11.97;6.20;;;;;;;3.37;73.32;101491.19;126309;1099;104284;-80
2022/02/12 06:33:38;;;;;;;11.70;5.53;;;;;;;3.39;74.42;101494.80;126274;1099;104258;-81
2022/02/12 06:36:09;;;;;;;9.80;5.37;;;;;;;3.39;73.60;101501.70;126408;1099;104207;-81
2022/02/12 06:38:41;;;;;;;10.67;5.40;;;;;;;3.38;74.07;101505.06;126372;1100;104255;-81
2022/02/12 06:41:16;;;;;;;10.90;5.87;;;;;;;3.37;73.79;101503.27;126322;1099;102848;-81
2022/02/12 06:43:47;;;;;;;12.03;5.63;;;;;;;3.40;73.60;101504.41;126365;1099;104287;-80
2022/02/12 06:46:19;;;;;;;11.27;5.53;;;;;;;3.44;73.30;101510.75;126357;1099;104290;-80
2022/02/12 06:48:50;;;;;;;11.57;5.80;;;;;;;3.46;73.61;101510.87;126336;1098;104370;-80
2022/02/12 06:51:25;;;;;;;12.37;5.37;;;;;;;3.50;72.99;101531.11;126308;1099;104137;-81
2022/02/12 06:53:57;;;;;;;10.60;5.43;;;;;;;3.54;72.62;101535.77;126369;1099;104223;-80
2022/02/12 06:56:31;;;;;;;11.23;5.50;;;;;;;3.57;72.99;101542.10;126314;1099;104213;-81
2022/02/12 06:59:02;;;;;;;10.13;5.37;;;;;;;3.58;73.14;101530.02;126370;1098;104230;-81
2022/02/12 07:01:34;;;;;;;9.57;5.00;;;;;;;3.60;73.15;101537.16;126304;1098;104139;-81
2022/02/12 07:04:05;;;;;;;9.30;5.00;;;;;;;3.63;73.27;101548.56;126295;1099;104216;-80
2022/02/12 07:06:37;;;;;;;10.60;5.13;;;;;;;3.65;72.39;101552.20;126359;1099;104146;-80
2022/02/12 07:09:11;;;;;;;11.10;5.33;;;;;;;3.68;73.51;101549.86;126286;1099;104233;-81
2022/02/12 07:11:43;;;;;;;11.00;5.50;;;;;;;3.72;72.68;101557.09;126240;1099;104207;-81
2022/02/12 07:14:15;;;;;;;9.10;4.70;;;;;;;3.76;72.59;101562.65;126354;1099;104248;-81
2022/02/12 07:16:47;;;;;;;10.37;5.37;;;;;;;3.80;72.54;101571.58;126335;1099;104162;-80
2022/02/12 07:19:19;;;;;;;11.37;5.20;;;;;;;3.80;72.82;101566.39;126350;1099;104152;-81
2022/02/12 07:21:51;;;;;;;7.70;4.43;;;;;;;3.83;71.57;101584.80;126230;1099;104637;-81
2022/02/12 07:24:23;;;;;;;9.23;4.80;;;;;;;3.84;71.79;101594.42;126310;1099;104137;-81
2022/02/12 07:26:55;;;;;;;9.37;4.87;;;;;;;3.85;71.89;101596.24;126281;1099;104267;-81
2022/02/12 07:29:28;;;;;;;11.27;4.93;;;;;;;3.90;71.79;101604.41;126365;1099;104171;-81
2022/02/12 07:32:01;;;;;;;12.85;4.97;;;;;;;3.93;71.50;101613.34;126335;1099;104216;-79
2022/02/12 07:34:33;;;;;;;9.47;4.80;;;;;;;4.02;70.90;101609.66;126261;1099;102011;-79
2022/02/12 07:37:05;;;;;;;9.93;4.20;;;;;;;4.10;71.28;101609.48;126196;1099;104582;-79
2022/02/12 07:39:36;;;;;;;12.03;5.83;;;;;;;4.21;70.66;101619.84;126205;1099;104140;-80
2022/02/12 07:42:08;;;;;;;9.95;4.70;;;;;;;4.29;70.43;101617.03;126153;1099;104185;-79
2022/02/12 07:44:40;;;;;;;10.73;4.50;;;;;;;4.39;70.78;101616.06;126231;1099;104149;-80
2022/02/12 07:47:11;;;;;;;7.60;4.27;;;;;;;4.51;70.50;101626.52;126176;1099;104262;-80
2022/02/12 07:49:43;;;;;;;9.67;4.47;;;;;;;4.58;69.03;101638.30;126226;1099;105132;-79
2022/02/12 07:52:15;;;;;;;8.37;4.17;;;;;;;4.59;68.35;101635.81;126304;1098;104149;-80
2022/02/12 07:55:01;;;;;;;9.67;4.23;;;;;;;4.65;69.40;101631.09;126347;1099;110619;-80
2022/02/12 07:57:33;;;;;;;9.33;3.90;;;;;;;4.69;69.07;101637.46;126362;1096;104252;-80
2022/02/12 08:00:06;;;;;;;10.13;4.23;;;;;;;4.73;69.33;101638.59;126357;1099;104270;-82
2022/02/12 08:02:43;;;;;;;9.30;4.10;;;;;;;4.75;68.97;101643.10;126261;1099;104204;-81
2022/02/12 08:05:16;;;;;;;9.87;3.83;;;;;;;4.70;65.87;101670.45;126377;1097;104175;-81
2022/02/12 08:07:47;;;;;;;10.47;4.60;;;;;;;4.66;66.91;101652.82;126337;1099;104143;-81
2022/02/12 08:13:11;;;;;;;12.53;4.40;;;;;;;4.71;66.46;101661.88;126016;1099;104159;-80
2022/02/12 08:15:43;;;;;;;7.10;3.83;;;;;;;4.75;65.60;101660.41;125900;1099;104425;-79
2022/02/12 08:18:22;;;;;;;11.80;4.20;;;;;;;4.86;66.66;101660.47;126310;1099;104728;-80
2022/02/12 08:21:02;;;;;;;10.00;4.23;;;;;;;4.93;65.54;101661.84;126303;1097;104195;-79
2022/02/12 08:23:34;;;;;;;14.50;4.80;;;;;;;5.01;66.47;101658.11;126300;1099;104163;-82
2022/02/12 08:26:06;;;;;;;11.13;4.57;;;;;;;5.11;65.64;101671.83;126350;1099;104219;-80
2022/02/12 08:28:38;;;;;;;11.47;4.53;;;;;;;5.12;65.07;101671.95;126386;1099;104146;-80
2022/02/12 08:31:09;;;;;;;9.63;4.90;;;;;;;5.20;66.00;101672.53;126283;1099;104201;-81
2022/02/12 08:33:41;;;;;;;8.47;4.70;;;;;;;5.29;65.90;101667.13;126332;1099;104204;-81
2022/02/12 08:36:12;;;;;;;11.53;4.40;;;;;;;5.33;65.39;101675.29;126318;1099;104146;-81
2022/02/12 08:38:44;;;;;;;11.33;4.70;;;;;;;5.36;64.39;101678.13;126056;1099;104724;-81
2022/02/12 08:41:20;;;;;;;15.03;4.60;;;;;;;5.36;64.31;101683.33;126178;1097;104153;-80
2022/02/12 08:43:52;;;;;;;9.53;4.13;;;;;;;5.29;62.55;101688.84;126117;1099;105606;-82
2022/02/12 08:46:24;;;;;;;10.17;4.03;;;;;;;5.21;61.67;101716.89;126053;1099;104710;-81
2022/02/12 08:48:58;;;;;;;13.47;4.30;;;;;;;5.17;61.26;101721.73;126068;1099;104236;-81
2022/02/12 08:51:37;;;;;;;10.90;3.80;;;;;;;5.13;60.63;101720.61;126018;1099;104233;-81
2022/02/12 08:54:13;;;;;;;9.13;3.73;;;;;;;5.11;61.03;101737.80;126079;1099;104178;-81
2022/02/12 08:56:43;;;;;;;;;;;;;;;5.15;60.41;101725.92;126311;1097;104143;-81
2022/02/12 08:59:15;;;;;;;10.17;4.20;;;;;;;5.27;60.78;101745.09;126326;1099;102019;-80
2022/02/12 09:01:47;;;;;;;8.27;3.90;;;;;;;5.32;59.97;101737.64;126357;1099;104325;-81
2022/02/12 09:04:18;;;;;;;11.20;4.60;;;;;;;5.37;60.47;101729.37;126317;1099;104201;-82
2022/02/12 09:06:50;;;;;;;13.73;4.50;;;;;;;5.47;60.22;101745.69;126326;1099;104159;-81
2022/02/12 09:09:23;;;;;;;11.83;4.53;;;;;;;5.49;59.96;101728.52;126383;1099;104184;-81
2022/02/12 09:11:55;;;;;;;9.43;4.20;;;;;;;5.39;59.61;101751.24;126335;1099;104166;-81
2022/02/12 09:14:26;;;;;;;13.23;4.40;;;;;;;5.45;60.18;101744.68;126316;1099;104162;-81
2022/02/12 09:16:58;;;;;;;9.47;4.37;;;;;;;5.63;60.27;101751.28;126280;1099;104143;-81
2022/02/12 09:19:29;;;;;;;9.20;4.10;;;;;;;5.72;59.58;101745.87;126295;1099;105022;-81
2022/02/12 09:22:02;;;;;;;11.03;4.53;;;;;;;5.73;59.11;101748.59;126281;1098;104142;-80
2022/02/12 09:24:34;;;;;;;9.70;4.50;;;;;;;5.67;58.41;101757.62;126214;1099;104156;-81
2022/02/12 09:27:06;;;;;;;9.60;3.80;;;;;;;5.58;56.73;101761.35;126319;1099;104306;-81
2022/02/12 09:29:37;;;;;;;8.43;4.20;;;;;;;5.63;57.72;101772.12;126255;1099;104172;-82
2022/02/12 09:32:10;;;;;;;11.73;4.63;;;;;;;5.77;57.71;101770.56;126288;1099;104278;-81
2022/02/12 09:34:41;;;;;;;11.33;4.20;;;;;;;5.96;57.23;101762.41;126318;1099;103599;-80
2022/02/12 09:37:13;;;;;;;9.57;4.23;;;;;;;6.20;58.15;101771.19;126346;1099;104901;-81
2022/02/12 09:39:47;;;;;;;9.13;4.33;;;;;;;6.24;57.00;101769.70;126391;1098;104177;-80
2022/02/12 09:42:19;;;;;;;10.80;4.80;;;;;;;6.15;57.17;101775.14;126266;1098;104210;-80
2022/02/12 09:44:51;;;;;;;9.67;4.13;;;;;;;6.06;55.15;101775.38;126145;1099;104201;-81
2022/02/12 09:47:46;;;;;;;11.53;4.13;;;;;;;6.11;55.58;101760.98;126191;1099;104230;-80
2022/02/12 09:50:19;;;;;;;13.43;4.30;;;;;;;6.25;55.95;101762.00;126168;1099;104146;-80
2022/02/12 09:52:55;;;;;;;12.60;4.50;;;;;;;6.32;54.92;101771.16;126185;1099;104175;-80
2022/02/12 09:55:28;;;;;;;9.67;4.27;;;;;;;6.24;54.16;101760.17;126130;1099;104226;-80
2022/02/12 09:58:00;;;;;;;9.70;4.20;;;;;;;6.26;52.69;101761.22;126245;1099;104192;-80
2022/02/12 10:00:31;;;;;;;10.03;4.00;;;;;;;6.47;54.12;101756.64;126294;1099;104147;-80
2022/02/12 10:03:04;;;;;;;11.07;3.90;;;;;;;6.47;53.40;101748.81;126200;1099;101990;-79
2022/02/12 10:05:38;;;;;;;10.57;4.03;;;;;;;6.49;53.91;101767.19;126189;1099;104152;-79
2022/02/12 10:08:15;;;;;;;8.30;4.00;;;;;;;6.70;53.46;101759.08;126242;1099;104182;-80
2022/02/12 10:10:49;;;;;;;12.53;3.80;;;;;;;6.76;53.38;101752.63;126182;1099;104316;-80
2022/02/12 10:13:22;;;;;;;8.95;3.77;;;;;;;6.75;53.72;101749.91;126214;1099;104150;-80
2022/02/12 10:15:56;;;;;;;10.95;4.10;;;;;;;6.82;51.89;101754.73;126243;1098;104216;-80
2022/02/12 10:18:29;;;;;;;10.90;4.08;;;;;;;6.94;52.57;101753.00;126342;1099;104638;-81
2022/02/12 10:21:01;;;;;;;9.20;3.97;;;;;;;7.09;53.35;101757.47;126210;1099;104165;-80
2022/02/12 10:23:35;;;;;;;8.80;3.40;;;;;;;7.04;50.94;101764.08;126200;1099;104322;-81
2022/02/12 10:26:21;;;;;;;14.57;4.33;;;;;;;7.03;52.68;101765.80;126190;1099;104284;-80
2022/02/12 10:29:01;;;;;;;8.83;4.00;;;;;;;7.00;51.31;101776.02;126267;1097;104246;-81
2022/02/12 10:31:33;;;;;;;9.03;3.30;;;;;;;6.90;51.96;101771.83;126260;1099;104201;-81
2022/02/12 10:34:08;;;;;;;8.70;4.20;;;;;;;6.81;52.06;101769.50;126223;1099;104203;-81
2022/02/12 10:36:40;;;;;;;7.27;3.23;;;;;;;6.81;51.69;101763.38;126321;1099;104252;-81
2022/02/12 10:39:12;;;;;;;12.47;4.00;;;;;;;6.70;51.39;101770.44;126341;1099;104223;-80
2022/02/12 10:41:43;;;;;;;7.50;3.20;;;;;;;6.52;48.81;101776.94;126359;1099;104625;-80
2022/02/12 10:44:15;;;;;;;7.63;3.57;;;;;;;6.48;50.76;101776.72;126383;1099;104169;-81
2022/02/12 10:46:48;;;;;;;9.93;3.43;;;;;;;6.62;48.94;101785.55;126307;1099;104159;-80
2022/02/12 10:49:23;;;;;;;12.00;3.60;;;;;;;6.88;50.39;101773.44;126312;1099;104399;-82
2022/02/12 10:51:56;;;;;;;10.27;3.53;;;;;;;6.94;48.57;101776.48;126238;1099;104226;-80
2022/02/12 10:54:27;;;;;;;11.93;3.40;;;;;;;6.92;48.79;101792.81;126227;1099;104316;-80
2022/02/12 10:57:00;;;;;;;7.03;3.30;;;;;;;6.88;48.67;101803.85;126277;1099;104146;-81
2022/02/12 10:59:36;;;;;;;9.63;3.13;;;;;;;6.76;47.52;101799.58;126335;1097;104432;-82
2022/02/12 11:02:15;;;;;;;11.40;3.53;;;;;;;6.68;47.87;101805.03;126315;1099;104396;-81
2022/02/12 11:04:50;;;;;;;8.33;3.30;;;;;;;6.64;48.15;101810.02;126330;1099;104140;-81
2022/02/12 11:07:24;;;;;;;8.40;3.63;;;;;;;6.71;49.05;101800.03;126314;1099;104181;-81
2022/02/12 11:09:56;;;;;;;11.57;3.90;;;;;;;6.81;48.81;101800.80;126301;1099;104660;-81
2022/02/12 11:12:29;;;;;;;9.33;3.70;;;;;;;6.86;48.47;101797.59;126406;1097;104360;-81
2022/02/12 11:15:01;;;;;;;8.88;3.47;;;;;;;6.88;47.79;101809.08;126290;1097;104223;-80
2022/02/12 11:17:34;;;;;;;12.07;3.80;;;;;;;6.94;47.69;101817.34;126304;1099;104152;-80
2022/02/12 11:20:11;;;;;;;6.35;2.80;;;;;;;6.99;46.92;101803.80;126332;1099;104140;-81
2022/02/12 11:22:47;;;;;;;8.90;3.10;;;;;;;7.01;46.58;101810.06;126381;1099;104258;-81
2022/02/12 11:25:38;;;;;;;5.97;2.97;;;;;;;7.07;45.39;101820.00;126342;1099;104158;-81
2022/02/12 11:28:12;;;;;;;8.13;3.40;;;;;;;7.08;45.21;101819.22;126256;1099;104142;-81
2022/02/12 11:30:45;;;;;;;7.97;3.15;;;;;;;7.12;46.50;101805.59;126264;1099;104245;-80
2022/02/12 11:33:23;;;;;;;4.87;3.00;;;;;;;7.16;46.50;101824.98;125288;1099;104284;-81
2022/02/12 11:36:22;;;;;;;6.17;3.30;;;;;;;7.21;46.52;101810.54;125303;1099;103165;-80
2022/02/12 11:39:08;;;;;;;8.43;2.80;;;;;;;7.18;46.34;101810.33;125276;1099;104370;-80
2022/02/12 11:41:40;;;;;;;9.90;3.17;;;;;;;7.13;46.07;101816.94;126130;1099;104367;-81